sensor_id;sensor_type;location;lat;lon;timestamp;pressure;altitude;pressure_sealevel;temperature;humidity
74242;BME280;62599;49.146;10.426;2022-12-07T00:01:36;95705.34;;;0.36;100.00
74242;BME280;62599;49.146;10.426;2022-12-07T00:04:04;95706.97;;;0.37;100.00
74242;BME280;62599;49.146;10.426;2022-12-07T00:06:34;95707.22;;;0.40;100.00
74242;BME280;62599;49.146;10.426;2022-12-07T00:09:00;95699.53;;;0.49;100.00
74242;BME280;62599;49.146;10.426;2022-12-07T00:11:26;95698.47;;;0.50;100.00
74242;BME280;62599;49.146;10.426;2022-12-07T00:13:57;95702.47;;;0.47;100.00
74242;BME280;62599;49.146;10.426;2022-12-07T00:16:26;95699.53;;;0.49;100.00
74242;BME280;62599;49.146;10.426;2022-12-07T00:18:52;95698.19;;;0.46;100.00
74242;BME280;62599;49.146;10.426;2022-12-07T00:21:23;95692.63;;;0.43;100.00
74242;BME280;62599;49.146;10.426;2022-12-07T00:23:49;95702.19;;;0.44;100.00
74242;BME280;62599;49.146;10.426;2022-12-07T00:26:18;95696.34;;;0.42;100.00
74242;BME280;62599;49.146;10.426;2022-12-07T00:28:48;95695.28;;;0.43;100.00
74242;BME280;62599;49.146;10.426;2022-12-07T00:31:15;95688.66;;;0.45;100.00
74242;BME280;62599;49.146;10.426;2022-12-07T00:33:41;95689.72;;;0.50;100.00
74242;BME280;62599;49.146;10.426;2022-12-07T00:36:09;95680.44;;;0.52;100.00
74242;BME280;62599;49.146;10.426;2022-12-07T00:38:36;95682.56;;;0.50;100.00
74242;BME280;62599;49.146;10.426;2022-12-07T00:41:07;95676.72;;;0.53;100.00
74242;BME280;62599;49.146;10.426;2022-12-07T00:43:34;95682.84;;;0.59;100.00
74242;BME280;62599;49.146;10.426;2022-12-07T00:45:59;95685.72;;;0.57;100.00
74242;BME280;62599;49.146;10.426;2022-12-07T00:48:25;95688.66;;;0.56;100.00
74242;BME280;62599;49.146;10.426;2022-12-07T00:50:51;95680.44;;;0.57;100.00
74242;BME280;62599;49.146;10.426;2022-12-07T00:53:17;95677.00;;;0.52;100.00
74242;BME280;62599;49.146;10.426;2022-12-07T00:55:43;95683.34;;;0.51;100.00
74242;BME280;62599;49.146;10.426;2022-12-07T00:58:09;95682.31;;;0.52;100.00
74242;BME280;62599;49.146;10.426;2022-12-07T01:00:39;95678.34;;;0.49;100.00
74242;BME280;62599;49.146;10.426;2022-12-07T01:03:06;95688.13;;;0.48;100.00
74242;BME280;62599;49.146;10.426;2022-12-07T01:05:32;95683.09;;;0.47;100.00
74242;BME280;62599;49.146;10.426;2022-12-07T01:07:58;95676.75;;;0.48;100.00
74242;BME280;62599;49.146;10.426;2022-12-07T01:10:23;95676.22;;;0.46;100.00
74242;BME280;62599;49.146;10.426;2022-12-07T01:12:48;95679.38;;;0.43;100.00
74242;BME280;62599;49.146;10.426;2022-12-07T01:15:14;95688.69;;;0.40;100.00
74242;BME280;62599;49.146;10.426;2022-12-07T01:17:40;95687.34;;;0.38;100.00
74242;BME280;62599;49.146;10.426;2022-12-07T01:20:06;95685.78;;;0.37;100.00
74242;BME280;62599;49.146;10.426;2022-12-07T01:22:39;95678.88;;;0.36;100.00
74242;BME280;62599;49.146;10.426;2022-12-07T01:25:06;95690.50;;;0.40;100.00
74242;BME280;62599;49.146;10.426;2022-12-07T01:27:33;95695.03;;;0.39;100.00
74242;BME280;62599;49.146;10.426;2022-12-07T01:29:58;95695.56;;;0.36;100.00
74242;BME280;62599;49.146;10.426;2022-12-07T01:32:24;95694.75;;;0.36;100.00
74242;BME280;62599;49.146;10.426;2022-12-07T01:34:49;95691.59;;;0.39;100.00
74242;BME280;62599;49.146;10.426;2022-12-07T01:37:14;95694.75;;;0.36;100.00
74242;BME280;62599;49.146;10.426;2022-12-07T01:39:40;95692.91;;;0.36;100.00
74242;BME280;62599;49.146;10.426;2022-12-07T01:42:09;95697.94;;;0.38;100.00
74242;BME280;62599;49.146;10.426;2022-12-07T01:47:53;95700.63;;;0.33;100.00
74242;BME280;62599;49.146;10.426;2022-12-07T01:50:21;95693.72;;;0.32;100.00
74242;BME280;62599;49.146;10.426;2022-12-07T01:52:50;95688.66;;;0.25;100.00
74242;BME280;62599;49.146;10.426;2022-12-07T01:55:17;95692.13;;;0.20;100.00
74242;BME280;62599;49.146;10.426;2022-12-07T01:57:46;95692.94;;;0.16;100.00
74242;BME280;62599;49.146;10.426;2022-12-07T02:00:13;95686.03;;;0.10;100.00
74242;BME280;62599;49.146;10.426;2022-12-07T02:02:45;95692.38;;;0.14;100.00
74242;BME280;62599;49.146;10.426;2022-12-07T02:05:13;95693.44;;;0.18;100.00
74242;BME280;62599;49.146;10.426;2022-12-07T02:07:39;95687.91;;;0.19;100.00
74242;BME280;62599;49.146;10.426;2022-12-07T02:10:15;95679.66;;;0.21;100.00
74242;BME280;62599;49.146;10.426;2022-12-07T02:12:42;95676.25;;;0.15;100.00
74242;BME280;62599;49.146;10.426;2022-12-07T02:15:09;95680.22;;;0.03;100.00
74242;BME280;62599;49.146;10.426;2022-12-07T02:17:53;95677.53;;;-0.08;100.00
74242;BME280;62599;49.146;10.426;2022-12-07T02:29:10;95685.75;;;-0.25;100.00
74242;BME280;62599;49.146;10.426;2022-12-07T02:31:40;95689.47;;;-0.20;100.00
74242;BME280;62599;49.146;10.426;2022-12-07T02:34:13;95695.00;;;-0.12;100.00
74242;BME280;62599;49.146;10.426;2022-12-07T02:36:52;95692.13;;;-0.10;100.00
74242;BME280;62599;49.146;10.426;2022-12-07T02:41:55;95695.53;;;-0.20;100.00
74242;BME280;62599;49.146;10.426;2022-12-07T02:44:26;95689.44;;;-0.36;100.00
74242;BME280;62599;49.146;10.426;2022-12-07T02:46:55;95692.31;;;-0.47;100.00
74242;BME280;62599;49.146;10.426;2022-12-07T02:49:24;95688.31;;;-0.60;100.00
74242;BME280;62599;49.146;10.426;2022-12-07T02:51:52;95681.66;;;-0.73;100.00
74242;BME280;62599;49.146;10.426;2022-12-07T02:54:19;95684.25;;;-0.88;100.00
74242;BME280;62599;49.146;10.426;2022-12-07T02:56:53;95696.63;;;-0.99;100.00
74242;BME280;62599;49.146;10.426;2022-12-07T03:13:09;95669.59;;;-1.64;100.00
74242;BME280;62599;49.146;10.426;2022-12-07T03:15:41;95663.00;;;-1.66;100.00
74242;BME280;62599;49.146;10.426;2022-12-07T03:18:09;95661.34;;;-1.73;100.00
74242;BME280;62599;49.146;10.426;2022-12-07T03:20:37;95662.91;;;-1.77;100.00
74242;BME280;62599;49.146;10.426;2022-12-07T03:23:07;95650.69;;;-1.88;100.00
74242;BME280;62599;49.146;10.426;2022-12-07T03:25:37;95653.34;;;-1.88;100.00
74242;BME280;62599;49.146;10.426;2022-12-07T03:28:05;95645.44;;;-1.83;100.00
74242;BME280;62599;49.146;10.426;2022-12-07T03:30:37;95653.41;;;-1.78;100.00
74242;BME280;62599;49.146;10.426;2022-12-07T03:33:14;95650.28;;;-1.70;100.00
74242;BME280;62599;49.146;10.426;2022-12-07T03:35:46;95644.00;;;-1.63;100.00
74242;BME280;62599;49.146;10.426;2022-12-07T03:38:50;95640.88;;;-1.55;100.00
74242;BME280;62599;49.146;10.426;2022-12-07T03:41:30;95627.19;;;-1.47;100.00
74242;BME280;62599;49.146;10.426;2022-12-07T03:43:57;95637.22;;;-1.44;100.00
74242;BME280;62599;49.146;10.426;2022-12-07T03:46:37;95623.75;;;-1.42;100.00
74242;BME280;62599;49.146;10.426;2022-12-07T03:51:48;95613.75;;;-1.35;100.00
74242;BME280;62599;49.146;10.426;2022-12-07T03:54:30;95607.47;;;-1.29;100.00
74242;BME280;62599;49.146;10.426;2022-12-07T03:56:58;95606.72;;;-1.19;100.00
74242;BME280;62599;49.146;10.426;2022-12-07T03:59:25;95611.50;;;-1.11;100.00
74242;BME280;62599;49.146;10.426;2022-12-07T04:01:53;95614.19;;;-1.01;100.00
74242;BME280;62599;49.146;10.426;2022-12-07T04:04:19;95610.75;;;-1.02;100.00
74242;BME280;62599;49.146;10.426;2022-12-07T04:06:45;95620.53;;;-0.97;100.00
74242;BME280;62599;49.146;10.426;2022-12-07T04:09:10;95617.38;;;-0.94;100.00
74242;BME280;62599;49.146;10.426;2022-12-07T04:11:36;95620.28;;;-0.90;100.00
74242;BME280;62599;49.146;10.426;2022-12-07T04:14:01;95617.88;;;-0.92;100.00
74242;BME280;62599;49.146;10.426;2022-12-07T04:16:53;95620.00;;;-0.89;100.00
74242;BME280;62599;49.146;10.426;2022-12-07T04:19:21;95610.00;;;-0.87;100.00
74242;BME280;62599;49.146;10.426;2022-12-07T04:21:47;95617.38;;;-0.84;100.00
74242;BME280;62599;49.146;10.426;2022-12-07T04:24:14;95609.44;;;-0.84;100.00
74242;BME280;62599;49.146;10.426;2022-12-07T04:26:40;95603.09;;;-0.88;100.00
74242;BME280;62599;49.146;10.426;2022-12-07T04:29:05;95599.66;;;-0.93;100.00
74242;BME280;62599;49.146;10.426;2022-12-07T04:31:30;95609.44;;;-0.94;100.00
74242;BME280;62599;49.146;10.426;2022-12-07T04:33:56;95618.41;;;-0.95;100.00
74242;BME280;62599;49.146;10.426;2022-12-07T04:36:21;95621.84;;;-0.94;100.00
74242;BME280;62599;49.146;10.426;2022-12-07T04:38:47;95618.94;;;-0.98;100.00
74242;BME280;62599;49.146;10.426;2022-12-07T04:41:13;95610.47;;;-0.95;100.00
74242;BME280;62599;49.146;10.426;2022-12-07T04:43:38;95608.38;;;-0.93;100.00
74242;BME280;62599;49.146;10.426;2022-12-07T04:46:07;95619.19;;;-0.94;100.00
74242;BME280;62599;49.146;10.426;2022-12-07T04:48:32;95614.19;;;-0.91;100.00
74242;BME280;62599;49.146;10.426;2022-12-07T04:50:58;95614.19;;;-0.91;100.00
74242;BME280;62599;49.146;10.426;2022-12-07T04:53:23;95622.13;;;-0.86;100.00
74242;BME280;62599;49.146;10.426;2022-12-07T04:55:48;95618.44;;;-0.85;100.00
74242;BME280;62599;49.146;10.426;2022-12-07T04:58:14;95611.06;;;-0.83;100.00
74242;BME280;62599;49.146;10.426;2022-12-07T05:00:39;95618.19;;;-0.78;100.00
74242;BME280;62599;49.146;10.426;2022-12-07T05:03:05;95628.25;;;-0.75;100.00
74242;BME280;62599;49.146;10.426;2022-12-07T05:05:31;95624.31;;;-0.73;100.00
74242;BME280;62599;49.146;10.426;2022-12-07T05:07:56;95620.31;;;-0.70;100.00
74242;BME280;62599;49.146;10.426;2022-12-07T05:10:21;95608.94;;;-0.70;100.00
74242;BME280;62599;49.146;10.426;2022-12-07T05:12:50;95612.41;;;-0.60;100.00
74242;BME280;62599;49.146;10.426;2022-12-07T05:15:16;95608.97;;;-0.65;100.00
74242;BME280;62599;49.146;10.426;2022-12-07T05:17:41;95613.19;;;-0.59;100.00
74242;BME280;62599;49.146;10.426;2022-12-07T05:20:07;95615.59;;;-0.58;100.00
74242;BME280;62599;49.146;10.426;2022-12-07T05:22:33;95610.56;;;-0.59;100.00
74242;BME280;62599;49.146;10.426;2022-12-07T05:25:02;95614.81;;;-0.53;100.00
74242;BME280;62599;49.146;10.426;2022-12-07T05:27:28;95614.00;;;-0.54;100.00
74242;BME280;62599;49.146;10.426;2022-12-07T05:29:54;95607.13;;;-0.55;100.00
74242;BME280;62599;49.146;10.426;2022-12-07T05:32:19;95614.81;;;-0.53;100.00
74242;BME280;62599;49.146;10.426;2022-12-07T05:34:44;95621.69;;;-0.52;100.00
74242;BME280;62599;49.146;10.426;2022-12-07T05:37:10;95624.59;;;-0.49;100.00
74242;BME280;62599;49.146;10.426;2022-12-07T05:39:35;95630.44;;;-0.46;100.00
74242;BME280;62599;49.146;10.426;2022-12-07T05:42:03;95633.34;;;-0.43;100.00
74242;BME280;62599;49.146;10.426;2022-12-07T05:44:43;95632.00;;;-0.40;100.00
74242;BME280;62599;49.146;10.426;2022-12-07T05:47:09;95634.41;;;-0.39;100.00
74242;BME280;62599;49.146;10.426;2022-12-07T05:49:35;95637.56;;;-0.37;100.00
74242;BME280;62599;49.146;10.426;2022-12-07T05:52:01;95631.75;;;-0.34;100.00
74242;BME280;62599;49.146;10.426;2022-12-07T05:54:26;95629.66;;;-0.32;100.00
74242;BME280;62599;49.146;10.426;2022-12-07T05:56:52;95631.78;;;-0.29;100.00
74242;BME280;62599;49.146;10.426;2022-12-07T05:59:17;95624.34;;;-0.27;100.00
74242;BME280;62599;49.146;10.426;2022-12-07T06:01:59;95615.34;;;-0.26;100.00
74242;BME280;62599;49.146;10.426;2022-12-07T06:04:27;95626.75;;;-0.25;100.00
74242;BME280;62599;49.146;10.426;2022-12-07T06:06:53;95626.75;;;-0.25;100.00
74242;BME280;62599;49.146;10.426;2022-12-07T06:09:20;95628.84;;;-0.27;100.00
74242;BME280;62599;49.146;10.426;2022-12-07T06:11:46;95629.63;;;-0.27;100.00
74242;BME280;62599;49.146;10.426;2022-12-07T06:14:30;95626.75;;;-0.25;100.00
74242;BME280;62599;49.146;10.426;2022-12-07T06:16:56;95632.81;;;-0.25;100.00
74242;BME280;62599;49.146;10.426;2022-12-07T06:19:21;95623.81;;;-0.23;100.00
74242;BME280;62599;49.146;10.426;2022-12-07T06:21:47;95632.31;;;-0.21;100.00
74242;BME280;62599;49.146;10.426;2022-12-07T06:24:14;95629.38;;;-0.20;100.00
74242;BME280;62599;49.146;10.426;2022-12-07T06:26:40;95628.84;;;-0.17;100.00
74242;BME280;62599;49.146;10.426;2022-12-07T06:29:06;95625.94;;;-0.15;100.00
74242;BME280;62599;49.146;10.426;2022-12-07T06:31:32;95634.66;;;-0.15;100.00
74242;BME280;62599;49.146;10.426;2022-12-07T06:34:09;95635.47;;;-0.14;100.00
74242;BME280;62599;49.146;10.426;2022-12-07T06:36:35;95645.50;;;-0.11;100.00
74242;BME280;62599;49.146;10.426;2022-12-07T06:39:01;95637.06;;;-0.08;100.00
74242;BME280;62599;49.146;10.426;2022-12-07T06:41:26;95644.47;;;-0.10;100.00
74242;BME280;62599;49.146;10.426;2022-12-07T06:43:52;95641.56;;;-0.09;100.00
74242;BME280;62599;49.146;10.426;2022-12-07T06:46:17;95634.94;;;-0.06;100.00
74242;BME280;62599;49.146;10.426;2022-12-07T06:48:43;95636.53;;;-0.10;100.00
74242;BME280;62599;49.146;10.426;2022-12-07T06:51:08;95633.91;;;-0.10;100.00
74242;BME280;62599;49.146;10.426;2022-12-07T06:53:34;95627.53;;;-0.09;100.00
74242;BME280;62599;49.146;10.426;2022-12-07T06:56:00;95636.53;;;-0.10;100.00
74242;BME280;62599;49.146;10.426;2022-12-07T06:58:25;95638.13;;;-0.09;100.00
74242;BME280;62599;49.146;10.426;2022-12-07T07:00:50;95634.94;;;-0.06;100.00
74242;BME280;62599;49.146;10.426;2022-12-07T07:03:16;95633.09;;;-0.11;100.00
74242;BME280;62599;49.146;10.426;2022-12-07T07:05:43;95640.25;;;-0.06;100.00
74242;BME280;62599;49.146;10.426;2022-12-07T07:08:08;95639.44;;;-0.07;100.00
74242;BME280;62599;49.146;10.426;2022-12-07T07:10:34;95639.19;;;-0.05;100.00
74242;BME280;62599;49.146;10.426;2022-12-07T07:13:00;95640.50;;;-0.03;100.00
74242;BME280;62599;49.146;10.426;2022-12-07T07:15:25;95639.44;;;-0.02;100.00
74242;BME280;62599;49.146;10.426;2022-12-07T07:17:51;95642.34;;;0.02;100.00
74242;BME280;62599;49.146;10.426;2022-12-07T07:20:16;95633.91;;;0.00;100.00
74242;BME280;62599;49.146;10.426;2022-12-07T07:22:42;95636.28;;;0.02;100.00
74242;BME280;62599;49.146;10.426;2022-12-07T07:25:07;95632.31;;;0.04;100.00
74242;BME280;62599;49.146;10.426;2022-12-07T07:27:33;95640.25;;;0.04;100.00
74242;BME280;62599;49.146;10.426;2022-12-07T07:29:58;95637.59;;;0.04;100.00
74242;BME280;62599;49.146;10.426;2022-12-07T07:32:23;95643.41;;;0.06;100.00
74242;BME280;62599;49.146;10.426;2022-12-07T07:34:49;95639.44;;;0.04;100.00
74242;BME280;62599;49.146;10.426;2022-12-07T07:37:14;95641.81;;;0.15;100.00
74242;BME280;62599;49.146;10.426;2022-12-07T07:39:39;95644.72;;;0.14;100.00
74242;BME280;62599;49.146;10.426;2022-12-07T07:42:05;95646.59;;;0.13;100.00
74242;BME280;62599;49.146;10.426;2022-12-07T07:44:31;95643.16;;;0.13;100.00
74242;BME280;62599;49.146;10.426;2022-12-07T07:46:56;95645.50;;;0.14;100.00
74242;BME280;62599;49.146;10.426;2022-12-07T07:49:21;95641.81;;;0.15;100.00
74242;BME280;62599;49.146;10.426;2022-12-07T07:51:47;95651.88;;;0.18;100.00
74242;BME280;62599;49.146;10.426;2022-12-07T07:54:12;95662.47;;;0.18;100.00
74242;BME280;62599;49.146;10.426;2022-12-07T07:56:37;95653.19;;;0.21;100.00
74242;BME280;62599;49.146;10.426;2022-12-07T07:59:03;95655.06;;;0.26;100.00
74242;BME280;62599;49.146;10.426;2022-12-07T08:01:28;95655.56;;;0.28;100.00
74242;BME280;62599;49.146;10.426;2022-12-07T08:03:53;95658.75;;;0.30;100.00
74242;BME280;62599;49.146;10.426;2022-12-07T08:06:21;95656.09;;;0.35;100.00
74242;BME280;62599;49.146;10.426;2022-12-07T08:08:47;95657.94;;;0.39;100.00
74242;BME280;62599;49.146;10.426;2022-12-07T08:11:12;95650.00;;;0.44;100.00
74242;BME280;62599;49.146;10.426;2022-12-07T08:13:38;95661.91;;;0.47;100.00
74242;BME280;62599;49.146;10.426;2022-12-07T08:16:08;95652.88;;;0.53;100.00
74242;BME280;62599;49.146;10.426;2022-12-07T08:18:37;95657.13;;;0.59;100.00
74242;BME280;62599;49.146;10.426;2022-12-07T08:21:04;95658.19;;;0.58;100.00
74242;BME280;62599;49.146;10.426;2022-12-07T08:23:30;95660.28;;;0.61;100.00
74242;BME280;62599;49.146;10.426;2022-12-07T08:26:00;95657.13;;;0.59;100.00
74242;BME280;62599;49.146;10.426;2022-12-07T08:28:26;95656.06;;;0.65;100.00
74242;BME280;62599;49.146;10.426;2022-12-07T08:30:51;95660.00;;;0.73;100.00
74242;BME280;62599;49.146;10.426;2022-12-07T08:33:16;95662.91;;;0.77;100.00
74242;BME280;62599;49.146;10.426;2022-12-07T08:35:42;95664.50;;;0.78;100.00
74242;BME280;62599;49.146;10.426;2022-12-07T08:38:07;95668.72;;;0.84;100.00
74242;BME280;62599;49.146;10.426;2022-12-07T08:40:33;95668.72;;;0.84;100.00
74242;BME280;62599;49.146;10.426;2022-12-07T08:43:00;95671.34;;;0.89;100.00
74242;BME280;62599;49.146;10.426;2022-12-07T08:45:25;95668.16;;;0.87;100.00
74242;BME280;62599;49.146;10.426;2022-12-07T08:47:55;95670.28;;;0.95;100.00
74242;BME280;62599;49.146;10.426;2022-12-07T08:50:23;95667.88;;;0.99;100.00
74242;BME280;62599;49.146;10.426;2022-12-07T08:52:51;95671.03;;;1.01;100.00
74242;BME280;62599;49.146;10.426;2022-12-07T08:55:19;95672.13;;;1.00;100.00
74242;BME280;62599;49.146;10.426;2022-12-07T08:57:45;95659.63;;;1.05;100.00
74242;BME280;62599;49.146;10.426;2022-12-07T09:00:11;95662.28;;;1.05;100.00
74242;BME280;62599;49.146;10.426;2022-12-07T09:02:36;95668.34;;;1.11;100.00
74242;BME280;62599;49.146;10.426;2022-12-07T09:05:02;95674.19;;;1.13;100.00
74242;BME280;62599;49.146;10.426;2022-12-07T09:07:29;95666.50;;;1.16;100.00
74242;BME280;62599;49.146;10.426;2022-12-07T09:09:55;95667.78;;;1.24;100.00
74242;BME280;62599;49.146;10.426;2022-12-07T09:12:21;95664.06;;;1.25;100.00
74242;BME280;62599;49.146;10.426;2022-12-07T09:14:46;95662.44;;;1.29;100.00
74242;BME280;62599;49.146;10.426;2022-12-07T09:17:12;95666.69;;;1.30;100.00
74242;BME280;62599;49.146;10.426;2022-12-07T09:19:38;95663.47;;;1.38;100.00
74242;BME280;62599;49.146;10.426;2022-12-07T09:22:04;95670.03;;;1.51;100.00
74242;BME280;62599;49.146;10.426;2022-12-07T09:24:30;95659.44;;;1.46;100.00
74242;BME280;62599;49.146;10.426;2022-12-07T09:26:56;95659.41;;;1.51;100.00
74242;BME280;62599;49.146;10.426;2022-12-07T09:29:22;95663.59;;;1.62;100.00
74242;BME280;62599;49.146;10.426;2022-12-07T09:31:47;95652.19;;;1.62;100.00
74242;BME280;62599;49.146;10.426;2022-12-07T09:34:13;95656.66;;;1.66;100.00
74242;BME280;62599;49.146;10.426;2022-12-07T09:36:38;95657.19;;;1.68;99.00
74242;BME280;62599;49.146;10.426;2022-12-07T09:39:04;95651.88;;;1.68;98.85
74242;BME280;62599;49.146;10.426;2022-12-07T09:41:30;95650.06;;;1.64;98.50
74242;BME280;62599;49.146;10.426;2022-12-07T09:44:10;95661.41;;;1.75;99.03
74242;BME280;62599;49.146;10.426;2022-12-07T09:46:39;95660.03;;;1.77;97.18
74242;BME280;62599;49.146;10.426;2022-12-07T09:49:10;95649.66;;;1.81;97.08
74242;BME280;62599;49.146;10.426;2022-12-07T09:51:36;95649.59;;;1.91;96.84
74242;BME280;62599;49.146;10.426;2022-12-07T09:54:02;95644.69;;;2.08;96.96
74242;BME280;62599;49.146;10.426;2022-12-07T09:56:31;95657.06;;;2.23;95.13
74242;BME280;62599;49.146;10.426;2022-12-07T09:59:01;95662.53;;;2.37;94.97
74242;BME280;62599;49.146;10.426;2022-12-07T10:01:30;95669.19;;;2.34;92.72
74242;BME280;62599;49.146;10.426;2022-12-07T10:04:05;95660.34;;;2.39;92.56
74242;BME280;62599;49.146;10.426;2022-12-07T10:06:31;95653.94;;;2.45;93.29
74242;BME280;62599;49.146;10.426;2022-12-07T10:08:57;95656.50;;;2.55;94.65
74242;BME280;62599;49.146;10.426;2022-12-07T10:11:22;95642.59;;;2.63;94.72
74242;BME280;62599;49.146;10.426;2022-12-07T10:13:51;95641.50;;;2.64;92.94
74242;BME280;62599;49.146;10.426;2022-12-07T10:18:51;95640.75;;;2.88;91.69
74242;BME280;62599;49.146;10.426;2022-12-07T10:21:21;95639.47;;;3.04;91.70
74242;BME280;62599;49.146;10.426;2022-12-07T10:26:56;95628.78;;;3.09;90.37
74242;BME280;62599;49.146;10.426;2022-12-07T10:29:28;95640.28;;;2.81;89.86
74242;BME280;62599;49.146;10.426;2022-12-07T10:32:24;95637.81;;;2.65;91.28
74242;BME280;62599;49.146;10.426;2022-12-07T10:34:51;95633.38;;;2.56;91.96
74242;BME280;62599;49.146;10.426;2022-12-07T10:37:40;95634.31;;;2.41;91.74
74242;BME280;62599;49.146;10.426;2022-12-07T10:40:35;95632.84;;;2.25;93.00
74242;BME280;62599;49.146;10.426;2022-12-07T10:43:20;95643.59;;;2.14;94.07
74242;BME280;62599;49.146;10.426;2022-12-07T10:54:24;95626.13;;;1.69;97.47
74242;BME280;62599;49.146;10.426;2022-12-07T11:07:34;95618.84;;;1.85;99.19
74242;BME280;62599;49.146;10.426;2022-12-07T11:13:04;95621.66;;;1.64;99.04
74242;BME280;62599;49.146;10.426;2022-12-07T11:18:39;95610.19;;;1.69;100.00
74242;BME280;62599;49.146;10.426;2022-12-07T11:21:11;95611.50;;;1.72;100.00
74242;BME280;62599;49.146;10.426;2022-12-07T11:37:28;95596.00;;;1.84;100.00
74242;BME280;62599;49.146;10.426;2022-12-07T11:40:00;95588.09;;;1.79;100.00
74242;BME280;62599;49.146;10.426;2022-12-07T11:42:30;95594.19;;;1.79;100.00
74242;BME280;62599;49.146;10.426;2022-12-07T11:45:03;95592.34;;;1.80;100.00
74242;BME280;62599;49.146;10.426;2022-12-07T11:52:43;95592.03;;;1.81;100.00
74242;BME280;62599;49.146;10.426;2022-12-07T11:55:22;95583.34;;;1.76;100.00
74242;BME280;62599;49.146;10.426;2022-12-07T12:00:48;95580.06;;;1.89;100.00
74242;BME280;62599;49.146;10.426;2022-12-07T12:03:28;95569.94;;;1.91;100.00
74242;BME280;62599;49.146;10.426;2022-12-07T12:05:57;95573.66;;;1.90;100.00
74242;BME280;62599;49.146;10.426;2022-12-07T12:08:33;95572.59;;;1.91;100.00
74242;BME280;62599;49.146;10.426;2022-12-07T12:11:01;95569.94;;;1.91;100.00
74242;BME280;62599;49.146;10.426;2022-12-07T12:21:17;95560.41;;;1.90;100.00
74242;BME280;62599;49.146;10.426;2022-12-07T12:23:48;95565.16;;;1.93;100.00
74242;BME280;62599;49.146;10.426;2022-12-07T12:26:20;95560.09;;;1.91;100.00
74242;BME280;62599;49.146;10.426;2022-12-07T12:28:59;95561.72;;;1.87;100.00
74242;BME280;62599;49.146;10.426;2022-12-07T12:31:36;95563.59;;;1.87;100.00
74242;BME280;62599;49.146;10.426;2022-12-07T12:34:31;95558.34;;;1.82;100.00
74242;BME280;62599;49.146;10.426;2022-12-07T12:36:57;95554.13;;;1.76;100.00
74242;BME280;62599;49.146;10.426;2022-12-07T12:39:22;95555.72;;;1.77;100.00
74242;BME280;62599;49.146;10.426;2022-12-07T13:01:47;95547.59;;;1.63;100.00
74242;BME280;62599;49.146;10.426;2022-12-07T13:04:25;95544.44;;;1.61;100.00
74242;BME280;62599;49.146;10.426;2022-12-07T13:06:53;95546.56;;;1.59;100.00
74242;BME280;62599;49.146;10.426;2022-12-07T13:09:24;95544.19;;;1.57;100.00
74242;BME280;62599;49.146;10.426;2022-12-07T13:11:58;95536.97;;;1.63;100.00
74242;BME280;62599;49.146;10.426;2022-12-07T13:25:07;95531.78;;;1.53;100.00
74242;BME280;62599;49.146;10.426;2022-12-07T13:27:37;95529.94;;;1.48;100.00
74242;BME280;62599;49.146;10.426;2022-12-07T13:30:18;95532.41;;;1.39;100.00
74242;BME280;62599;49.146;10.426;2022-12-07T13:32:52;95528.19;;;1.33;100.00
74242;BME280;62599;49.146;10.426;2022-12-07T13:35:34;95525.28;;;1.35;100.00
74242;BME280;62599;49.146;10.426;2022-12-07T13:38:23;95531.13;;;1.32;100.00
74242;BME280;62599;49.146;10.426;2022-12-07T13:41:26;95527.69;;;1.26;100.00
74242;BME280;62599;49.146;10.426;2022-12-07T13:44:05;95521.59;;;1.26;100.00
74242;BME280;62599;49.146;10.426;2022-12-07T13:49:17;95524.78;;;1.28;100.00
74242;BME280;62599;49.146;10.426;2022-12-07T13:51:43;95528.50;;;1.27;100.00
74242;BME280;62599;49.146;10.426;2022-12-07T13:54:11;95527.94;;;1.30;100.00
74242;BME280;62599;49.146;10.426;2022-12-07T13:56:37;95527.44;;;1.28;100.00
74242;BME280;62599;49.146;10.426;2022-12-07T13:59:05;95527.44;;;1.28;100.00
74242;BME280;62599;49.146;10.426;2022-12-07T14:01:35;95527.94;;;1.30;100.00
74242;BME280;62599;49.146;10.426;2022-12-07T14:04:39;95529.25;;;1.32;100.00
74242;BME280;62599;49.146;10.426;2022-12-07T14:07:24;95535.63;;;1.31;100.00
74242;BME280;62599;49.146;10.426;2022-12-07T14:10:24;95538.00;;;1.33;100.00
74242;BME280;62599;49.146;10.426;2022-12-07T14:12:51;95535.88;;;1.35;100.00
74242;BME280;62599;49.146;10.426;2022-12-07T14:15:22;95534.50;;;1.37;100.00
74242;BME280;62599;49.146;10.426;2022-12-07T14:17:53;95526.84;;;1.36;100.00
74242;BME280;62599;49.146;10.426;2022-12-07T14:20:48;95534.28;;;1.34;100.00
74242;BME280;62599;49.146;10.426;2022-12-07T14:23:40;95531.13;;;1.32;100.00
74242;BME280;62599;49.146;10.426;2022-12-07T14:26:19;95532.69;;;1.33;100.00
74242;BME280;62599;49.146;10.426;2022-12-07T14:28:45;95539.09;;;1.32;100.00
74242;BME280;62599;49.146;10.426;2022-12-07T14:31:11;95535.88;;;1.35;100.00
74242;BME280;62599;49.146;10.426;2022-12-07T14:33:38;95535.13;;;1.29;100.00
74242;BME280;62599;49.146;10.426;2022-12-07T14:36:04;95530.59;;;1.30;100.00
74242;BME280;62599;49.146;10.426;2022-12-07T14:38:29;95530.09;;;1.28;100.00
74242;BME280;62599;49.146;10.426;2022-12-07T14:40:55;95529.84;;;1.24;100.00
74242;BME280;62599;49.146;10.426;2022-12-07T14:43:41;95530.91;;;1.23;100.00
74242;BME280;62599;49.146;10.426;2022-12-07T14:46:06;95527.50;;;1.17;100.00
74242;BME280;62599;49.146;10.426;2022-12-07T14:48:32;95528.28;;;1.18;100.00
74242;BME280;62599;49.146;10.426;2022-12-07T14:50:57;95525.09;;;1.16;100.00
74242;BME280;62599;49.146;10.426;2022-12-07T14:53:35;95526.97;;;1.15;100.00
74242;BME280;62599;49.146;10.426;2022-12-07T14:56:01;95530.69;;;1.14;100.00
74242;BME280;62599;49.146;10.426;2022-12-07T14:58:29;95529.91;;;1.14;100.00
74242;BME280;62599;49.146;10.426;2022-12-07T15:00:54;95522.22;;;1.12;100.00
74242;BME280;62599;49.146;10.426;2022-12-07T15:03:22;95519.06;;;1.10;100.00